Hauptseite
METAR-TAF:

METAR-TAF

Flughäfen :

Flughafen Erfurt-Weimar

Erfurt, Deutschland

Breite: 50-59N, Länge: 010-58E, Höhe: 315 m

Beobachtung

Neuester Wetterbericht von vor 45 Minuten, um 04:20 UTC
Wind 9 kt aus Süd/Südwest
Temperatur 6°C
Luftfeuchtigkeit 81%
Luftdruck 1020 hPa
Sichtweite 10 km oder mehr
Durchbrochene Bewölkung in der Höhe von 1900 ft

METAR: EDDE 210420Z AUTO 21009KT 9999 BKN019 06/03 Q1020

Zeit: 06:05 (05:05 UTC)

Prognose

Neuester Wetterbericht von vor 6 Stunden und 5 Minuten, um 23:00 UTC
Gültige Prognose vom 21 um 00 UTC bis 21 um 24 UTC
Wind 10 kt aus Südwest
Sichtweite 10 km oder mehr
Durchbrochene Bewölkung in der Höhe von 4000 ft
Wahrscheinlichkeit 30% :
Zeitweise
vom 21 um 10 UTC bis 21 um 14 UTC
Wind 15 kt aus Südwest, Böen bis zu 25 kt

TAF: EDDE 202300Z 2100/2124 23010KT 9999 BKN040 PROB30 TEMPO 2110/2114 23015G25KT

Wetterbeobachtungen und Prognosen von mehr als 4000 Flughäfen (METAR und TAF Bericht).

Die verfügbaren Stationen werden durch gelbe und rote Markierungen auf der Karte dargestellt.

Führen Sie die Maus auf sie, um den Namen der Station zu sehen.

Darauf klicken, um die Beobachtung von Wetterbeobachtungen und Prognosen zu sehen.

Um die Karte zu ändern : klicken Sie auf den grünen Tasten mit einem schwarzen Kreuz Zum Vergrößern, auf den grünen Button mit einem Gedankenstrich zu verkleinern, oder auf die grünen Pfeile für benachbarte Karten.


METAR-TAF: